Time;durP1;ratioP1;P1;durP2;ratioP2;P2;SDS_P1;SDS_P2;PMS_P1;PMS_P2;Temp;Humidity;BMP_temperature;BMP_pressure;BME280_temperature;BME280_humidity;BME280_pressure;Samples;Min_cycle;Max_cycle;Signal;HPM_P1;HPM_P2
2020/12/27 00:02:17;;;;;;;;;;;25.60;60.00;;;;;;6366833;22;20002;-73
2020/12/27 00:05:23;;;;;;;8.90;2.20;;;25.60;60.50;;;;;;6365852;22;20027;-73
2020/12/27 00:08:29;;;;;;;6.22;2.00;;;25.60;60.70;;;;;;6365233;22;20030;-72
2020/12/27 00:11:15;;;;;;;;;;;25.60;61.10;;;;;;6366780;22;20022;-72
2020/12/27 00:14:21;;;;;;;7.45;2.63;;;25.60;61.40;;;;;;6365716;22;19974;-72
2020/12/27 00:17:27;;;;;;;7.85;2.67;;;25.50;61.70;;;;;;6363389;22;19994;-72
2020/12/27 00:20:34;;;;;;;8.57;1.55;;;25.50;62.00;;;;;;6365547;22;20010;-72
2020/12/27 00:23:40;;;;;;;4.47;1.73;;;25.40;62.10;;;;;;6365960;22;19998;-73
2020/12/27 00:26:29;;;;;;;;;;;25.40;62.20;;;;;;6366011;22;20268;-72
2020/12/27 00:29:35;;;;;;;5.95;1.73;;;25.40;62.30;;;;;;6365029;22;19960;-73
2020/12/27 00:32:41;;;;;;;2.75;1.20;;;25.40;62.30;;;;;;6365606;22;20417;-71
2020/12/27 00:35:27;;;;;;;;;;;25.40;62.40;;;;;;6364556;22;20033;-71
2020/12/27 00:38:33;;;;;;;4.93;1.92;;;25.40;62.50;;;;;;6365606;22;19910;-72
2020/12/27 00:41:39;;;;;;;3.38;1.85;;;25.30;62.40;;;;;;6365978;22;19994;-74
2020/12/27 00:44:25;;;;;;;;;;;25.30;62.50;;;;;;6366563;22;20077;-74
2020/12/27 00:47:31;;;;;;;3.80;1.80;;;25.30;62.60;;;;;;6364685;22;19973;-73
2020/12/27 00:50:17;;;;;;;;;;;25.30;62.60;;;;;;6366248;22;20002;-73
2020/12/27 00:53:23;;;;;;;4.70;1.48;;;25.30;62.80;;;;;;6365671;22;20326;-71
2020/12/27 00:56:09;;;;;;;;;;;25.30;62.80;;;;;;6364472;22;20005;-72
2020/12/27 00:59:15;;;;;;;5.55;1.60;;;25.30;62.90;;;;;;6365491;22;19913;-71
2020/12/27 01:02:01;;;;;;;;;;;25.30;62.90;;;;;;6366216;22;20334;-72
2020/12/27 01:05:07;;;;;;;5.28;1.55;;;25.30;63.00;;;;;;6364134;22;20237;-72
2020/12/27 01:07:53;;;;;;;;;;;25.30;63.20;;;;;;6366404;22;19994;-72
2020/12/27 01:10:59;;;;;;;4.78;1.50;;;25.30;63.20;;;;;;6366081;22;19905;-72
2020/12/27 01:13:45;;;;;;;;;;;25.20;63.20;;;;;;6364569;22;20082;-73
2020/12/27 01:16:51;;;;;;;2.28;1.38;;;25.30;63.40;;;;;;6365675;22;20360;-73
2020/12/27 01:19:37;;;;;;;;;;;25.20;63.40;;;;;;6366299;22;20011;-73
2020/12/27 01:22:43;;;;;;;3.63;1.80;;;25.20;63.70;;;;;;6364344;22;19960;-73
2020/12/27 01:25:29;;;;;;;;;;;25.20;64.00;;;;;;6365358;22;20417;-73
2020/12/27 01:28:39;;;;;;;5.55;2.03;;;25.10;64.40;;;;;;6366253;22;19898;-73
2020/12/27 01:31:45;;;;;;;8.80;2.17;;;25.10;64.70;;;;;;6365136;22;20003;-74
2020/12/27 01:34:31;;;;;;;;;;;25.10;65.10;;;;;;6364915;22;20002;-74
2020/12/27 01:37:37;;;;;;;5.80;1.88;;;25.10;65.40;;;;;;6364918;22;19929;-73
2020/12/27 01:40:23;;;;;;;;;;;25.00;65.50;;;;;;6365241;22;20013;-74
2020/12/27 01:43:35;;;;;;;6.43;1.58;;;25.10;65.70;;;;;;6364087;22;19898;-74
2020/12/27 01:46:41;;;;;;;2.83;1.40;;;25.00;65.70;;;;;;6365885;22;19999;-74
2020/12/27 01:49:47;;;;;;;2.25;1.23;;;25.00;65.80;;;;;;6365530;22;19994;-73
2020/12/27 01:52:33;;;;;;;;;;;25.00;66.70;;;;;;6364374;22;20081;-74
2020/12/27 01:55:40;;;;;;;5.50;2.10;;;25.00;66.30;;;;;;6365115;22;19902;-73
2020/12/27 01:58:35;;;;;;;;;;;25.00;66.30;;;;;;6366190;22;20013;-74
2020/12/27 02:01:41;;;;;;;9.32;1.30;;;24.90;66.50;;;;;;6363911;22;19898;-73
2020/12/27 02:04:27;;;;;;;;;;;24.90;66.50;;;;;;6365365;22;19999;-73
2020/12/27 02:07:33;;;;;;;2.28;1.25;;;24.90;66.70;;;;;;6337967;22;19937;-73
2020/12/27 02:10:19;;;;;;;;;;;24.90;66.70;;;;;;6365185;22;20002;-73
2020/12/27 02:13:25;;;;;;;2.72;1.17;;;24.80;66.80;;;;;;6363749;22;19898;-73
2020/12/27 02:16:11;;;;;;;;;;;24.80;66.80;;;;;;6365936;22;20051;-73
2020/12/27 02:19:17;;;;;;;5.28;1.00;;;24.80;66.80;;;;;;6364821;22;19957;-73
2020/12/27 02:22:03;;;;;;;;;;;24.80;66.90;;;;;;6364267;22;20003;-73
2020/12/27 02:25:09;;;;;;;2.45;1.27;;;24.80;67.00;;;;;;6365287;22;19906;-73
2020/12/27 02:27:55;;;;;;;;;;;24.70;67.00;;;;;;6365747;22;20002;-73
2020/12/27 02:31:01;;;;;;;4.35;1.25;;;24.80;67.20;;;;;;6363953;22;19898;-74
2020/12/27 02:34:07;;;;;;;4.25;1.90;;;24.70;67.20;;;;;;6364991;22;19994;-73
2020/12/27 02:36:53;;;;;;;;;;;24.80;67.30;;;;;;6366208;22;19999;-72
2020/12/27 02:39:59;;;;;;;2.75;1.10;;;24.70;67.40;;;;;;6364673;22;20329;-73
2020/12/27 02:43:05;;;;;;;2.75;1.20;;;24.70;67.30;;;;;;6367483;22;20496;-73
2020/12/27 02:45:51;;;;;;;;;;;24.70;67.40;;;;;;6367698;22;20002;-74
2020/12/27 02:48:57;;;;;;;4.97;0.95;;;24.70;67.60;;;;;;6366566;22;20365;-73
2020/12/27 02:51:43;;;;;;;;;;;24.70;67.60;;;;;;6367072;22;20066;-73
2020/12/27 02:54:49;;;;;;;1.58;1.02;;;24.70;67.80;;;;;;6366731;22;19921;-73
2020/12/27 02:57:35;;;;;;;;;;;24.70;67.90;;;;;;6366226;22;20360;-74
2020/12/27 03:00:41;;;;;;;2.42;1.45;;;24.70;68.00;;;;;;6366410;22;19924;-73
2020/12/27 03:03:47;;;;;;;4.25;1.48;;;24.70;68.10;;;;;;6367251;22;20075;-73
2020/12/27 03:06:53;;;;;;;2.33;1.23;;;24.70;68.10;;;;;;6337691;22;20352;-73
2020/12/27 03:09:39;;;;;;;;;;;24.70;68.20;;;;;;6366346;22;20002;-74
2020/12/27 03:12:47;;;;;;;3.30;1.73;;;24.60;68.20;;;;;;6366782;22;19908;-73
2020/12/27 03:15:54;;;;;;;5.03;1.48;;;24.60;68.20;;;;;;6360856;22;20013;-73
2020/12/27 03:19:03;;;;;;;4.70;2.75;;;24.60;68.20;;;;;;6364484;22;20034;-73
2020/12/27 03:22:09;;;;;;;7.43;1.85;;;24.60;68.30;;;;;;6366933;22;20077;-75
2020/12/27 03:24:55;;;;;;;;;;;24.60;68.30;;;;;;6367347;22;20044;-74
2020/12/27 03:28:01;;;;;;;8.57;3.72;;;24.60;68.30;;;;;;6364842;22;19972;-73
2020/12/27 03:30:47;;;;;;;;;;;24.60;68.10;;;;;;6366603;22;20442;-73
2020/12/27 03:33:53;;;;;;;7.47;2.22;;;24.50;67.90;;;;;;6366572;22;19925;-73
2020/12/27 03:36:39;;;;;;;;;;;24.50;67.60;;;;;;6366134;22;19995;-73
2020/12/27 03:39:45;;;;;;;7.15;2.83;;;24.50;67.40;;;;;;6366254;22;19916;-74
2020/12/27 03:42:31;;;;;;;;;;;24.50;67.30;;;;;;6367254;22;19999;-74
2020/12/27 03:45:39;;;;;;;9.23;3.10;;;24.40;67.30;;;;;;6365840;22;19898;-73
2020/12/27 03:48:45;;;;;;;7.68;1.95;;;24.40;67.20;;;;;;6365383;22;20012;-73
2020/12/27 03:51:51;;;;;;;6.70;2.70;;;24.40;67.20;;;;;;6365897;22;19998;-73
2020/12/27 03:54:57;;;;;;;11.82;2.75;;;24.40;67.20;;;;;;6366238;22;19998;-73
2020/12/27 03:58:19;;;;;;;5.25;2.47;;;24.40;67.10;;;;;;6363595;22;20022;-74
2020/12/27 04:01:25;;;;;;;12.48;3.25;;;24.40;67.00;;;;;;6366009;22;20536;-73
2020/12/27 04:04:31;;;;;;;13.55;2.92;;;24.40;66.80;;;;;;6366359;22;20001;-74
2020/12/27 04:07:17;;;;;;;;;;;24.30;66.60;;;;;;6366596;22;20014;-75
2020/12/27 04:10:23;;;;;;;9.88;6.15;;;24.30;66.70;;;;;;6365027;22;19894;-73
2020/12/27 04:13:29;;;;;;;12.60;5.45;;;24.30;66.60;;;;;;6365836;22;20075;-73
2020/12/27 04:16:35;;;;;;;14.20;4.15;;;24.30;66.60;;;;;;6366179;22;19999;-73
2020/12/27 04:19:21;;;;;;;;;;;24.30;66.40;;;;;;6365546;22;20383;-73
2020/12/27 04:22:27;;;;;;;7.88;2.35;;;24.30;66.40;;;;;;6365597;22;19898;-73
2020/12/27 04:25:33;;;;;;;10.25;2.78;;;24.30;66.30;;;;;;6366344;22;19998;-72
2020/12/27 04:28:39;;;;;;;6.70;3.35;;;24.30;66.20;;;;;;6365260;22;20067;-73
2020/12/27 04:31:45;;;;;;;3.83;1.70;;;24.30;66.20;;;;;;6365680;22;19999;-72
2020/12/27 04:34:51;;;;;;;8.73;2.97;;;24.30;66.20;;;;;;6366330;22;20025;-74
2020/12/27 04:37:57;;;;;;;8.27;2.20;;;24.30;66.20;;;;;;6365199;22;20001;-74
2020/12/27 04:40:43;;;;;;;;;;;24.30;66.20;;;;;;6364913;22;20012;-76
2020/12/27 04:43:49;;;;;;;12.98;9.32;;;24.30;66.10;;;;;;6366045;22;19898;-73
2020/12/27 04:46:35;;;;;;;;;;;24.30;66.00;;;;;;6366384;22;19999;-75
2020/12/27 04:49:41;;;;;;;9.10;4.65;;;24.30;66.10;;;;;;6364503;22;19916;-74
2020/12/27 04:52:28;;;;;;;;;;;24.30;66.00;;;;;;6366269;22;20074;-75
2020/12/27 04:55:14;;;;;;;;;;;24.30;66.00;;;;;;6366053;22;20329;-77
2020/12/27 04:58:22;;;;;;;7.60;2.90;;;24.30;65.90;;;;;;6364496;22;19910;-75
2020/12/27 05:01:28;;;;;;;7.57;2.58;;;24.30;65.60;;;;;;6365083;22;20025;-75
2020/12/27 05:04:34;;;;;;;9.77;6.22;;;24.30;65.40;;;;;;6364842;22;20002;-75
2020/12/27 05:07:40;;;;;;;13.52;9.40;;;24.30;65.20;;;;;;6337016;22;20002;-74
2020/12/27 05:10:46;;;;;;;14.02;6.05;;;24.30;65.00;;;;;;6365072;22;20008;-76
2020/12/27 05:13:52;;;;;;;12.15;5.43;;;24.30;64.80;;;;;;6365582;22;20003;-75
2020/12/27 05:16:58;;;;;;;11.70;5.15;;;24.30;64.70;;;;;;6365378;22;20408;-75
2020/12/27 05:19:25;;;;;;;;;;;24.30;64.60;;;;;;6364534;22;20010;-75
2020/12/27 05:21:55;;;;;;;9.50;2.83;;;24.30;64.40;;;;;;6365238;22;20325;-75
2020/12/27 05:24:22;;;;;;;15.77;3.35;;;24.20;64.20;;;;;;6364024;22;20090;-74
2020/12/27 05:26:52;;;;;;;14.02;4.95;;;24.30;64.10;;;;;;6365218;22;20017;-75
2020/12/27 05:29:33;;;;;;;11.57;3.70;;;24.20;63.80;;;;;;6364709;22;19999;-75
2020/12/27 05:32:00;;;;;;;8.88;2.50;;;24.30;63.60;;;;;;6363861;22;19995;-75
2020/12/27 05:34:29;;;;;;;10.68;3.25;;;24.20;63.30;;;;;;6364976;22;20472;-75
2020/12/27 05:36:58;;;;;;;13.13;3.20;;;24.20;63.20;;;;;;6363850;22;20299;-75
2020/12/27 05:39:26;;;;;;;9.15;2.70;;;24.30;63.10;;;;;;6365054;22;20338;-75
2020/12/27 05:42:05;;;;;;;6.45;1.67;;;24.30;62.80;;;;;;6364465;22;20085;-75
2020/12/27 05:44:35;;;;;;;8.23;2.75;;;24.30;62.60;;;;;;6365391;22;20069;-76
2020/12/27 05:47:02;;;;;;;8.50;2.47;;;24.30;62.40;;;;;;6366231;22;20028;-73
2020/12/27 05:49:29;;;;;;;9.80;2.35;;;24.30;62.20;;;;;;6363969;22;20029;-75
2020/12/27 05:51:59;;;;;;;11.30;3.17;;;24.30;61.90;;;;;;6365080;22;20529;-74
2020/12/27 05:54:36;;;;;;;9.85;2.83;;;24.30;61.60;;;;;;6363489;22;20367;-75
2020/12/27 05:57:05;;;;;;;13.05;3.88;;;24.30;61.20;;;;;;6365468;22;20073;-76
2020/12/27 05:59:36;;;;;;;9.57;2.90;;;24.40;61.00;;;;;;6363606;22;20006;-77
2020/12/27 06:02:03;;;;;;;9.05;2.88;;;24.40;60.60;;;;;;6363536;22;20073;-77
2020/12/27 06:04:39;;;;;;;9.98;3.03;;;24.40;60.30;;;;;;6336766;22;20002;-76
2020/12/27 06:07:07;;;;;;;11.93;3.40;;;24.40;60.00;;;;;;6363947;22;19999;-76
2020/12/27 06:09:40;;;;;;;7.43;3.05;;;24.40;59.80;;;;;;6365233;22;20128;-74
2020/12/27 06:12:13;;;;;;;14.02;2.90;;;24.40;59.50;;;;;;6364141;22;20330;-75
2020/12/27 06:14:42;;;;;;;9.35;3.03;;;24.40;59.30;;;;;;6365815;22;20452;-75
2020/12/27 06:17:13;;;;;;;8.60;3.17;;;24.40;59.20;;;;;;6366370;22;20008;-75
2020/12/27 06:20:01;;;;;;;11.20;2.65;;;24.40;59.10;;;;;;6364945;22;20017;-75
2020/12/27 06:22:32;;;;;;;13.80;2.90;;;24.40;58.90;;;;;;6366010;22;20009;-74
2020/12/27 06:25:00;;;;;;;10.73;3.30;;;24.40;58.70;;;;;;6364975;22;20002;-75
2020/12/27 06:27:31;;;;;;;12.57;3.00;;;24.40;58.40;;;;;;6366877;22;20402;-75
2020/12/27 06:30:10;;;;;;;13.10;3.03;;;24.40;58.30;;;;;;6366578;22;19998;-74
2020/12/27 06:33:20;;;;;;;11.07;2.90;;;24.50;58.10;;;;;;6360274;22;20419;-75
2020/12/27 06:36:26;;;;;;;10.40;4.28;;;24.60;57.90;;;;;;6362118;22;20061;-75
2020/12/27 06:39:45;;;;;;;11.57;2.17;;;24.60;57.70;;;;;;6366740;22;20014;-75
2020/12/27 06:42:51;;;;;;;8.45;2.50;;;24.70;57.60;;;;;;6365007;22;19998;-75
2020/12/27 06:45:26;;;;;;;;;;;24.70;57.20;;;;;;6365516;22;20325;-75
2020/12/27 06:48:33;;;;;;;8.07;2.88;;;24.80;56.90;;;;;;6366643;22;19906;-74
2020/12/27 06:51:48;;;;;;;10.88;2.30;;;24.80;56.50;;;;;;6364752;22;20311;-74
2020/12/27 06:55:03;;;;;;;6.35;1.90;;;24.80;56.10;;;;;;6337942;22;20018;-70
2020/12/27 06:58:16;;;;;;;6.38;2.35;;;24.90;55.70;;;;;;6366132;22;20011;-73
2020/12/27 07:00:43;;;;;;;10.82;2.80;;;24.90;55.40;;;;;;6366323;22;20151;-72
2020/12/27 07:03:19;;;;;;;5.35;2.25;;;24.90;55.20;;;;;;6365728;22;20026;-74
2020/12/27 07:05:47;;;;;;;8.52;2.55;;;25.00;55.00;;;;;;6338065;22;20010;-74
2020/12/27 07:08:37;;;;;;;5.82;2.25;;;25.00;54.80;;;;;;6364806;22;20078;-73
2020/12/27 07:11:06;;;;;;;10.98;4.97;;;25.00;54.60;;;;;;6365795;22;20068;-76
2020/12/27 07:13:45;;;;;;;15.98;6.28;;;25.10;54.50;;;;;;6366730;22;20318;-74
2020/12/27 07:16:17;;;;;;;15.75;6.38;;;25.10;54.30;;;;;;6364629;22;20442;-76
2020/12/27 07:18:50;;;;;;;10.25;5.05;;;25.10;54.10;;;;;;6365498;22;20014;-75
2020/12/27 07:21:27;;;;;;;11.05;4.22;;;25.20;54.00;;;;;;6364854;22;20006;-74
2020/12/27 07:24:05;;;;;;;10.45;2.80;;;25.20;53.70;;;;;;6366656;22;19994;-74
2020/12/27 07:26:44;;;;;;;8.60;2.42;;;25.30;52.10;;;;;;6366011;22;20058;-74
2020/12/27 07:29:20;;;;;;;8.40;2.65;;;25.30;51.80;;;;;;6365506;22;20003;-74
2020/12/27 07:31:47;;;;;;;16.77;3.33;;;25.20;51.30;;;;;;6366427;22;20003;-73
2020/12/27 07:34:15;;;;;;;10.40;2.70;;;25.10;50.90;;;;;;6364880;22;20006;-73
2020/12/27 07:36:42;;;;;;;23.15;3.83;;;25.10;51.20;;;;;;6366077;22;19999;-74
2020/12/27 07:39:12;;;;;;;13.98;3.30;;;25.20;50.60;;;;;;6365948;22;20426;-73
2020/12/27 07:41:43;;;;;;;9.27;2.25;;;25.30;49.20;;;;;;6365757;22;19998;-72
2020/12/27 07:44:17;;;;;;;9.70;3.25;;;25.20;49.10;;;;;;6366437;22;19994;-72
2020/12/27 07:46:44;;;;;;;14.10;3.60;;;25.10;49.40;;;;;;6364894;22;20362;-75
2020/12/27 07:49:12;;;;;;;15.45;4.35;;;24.90;49.70;;;;;;6366455;22;20029;-74
2020/12/27 07:51:40;;;;;;;8.43;2.80;;;24.80;50.20;;;;;;6365416;22;20454;-72
2020/12/27 07:54:07;;;;;;;11.57;3.53;;;24.90;50.50;;;;;;6366843;22;20009;-73
2020/12/27 07:56:34;;;;;;;9.68;3.30;;;25.00;51.20;;;;;;6365895;22;20029;-74
2020/12/27 07:59:04;;;;;;;7.22;4.07;;;25.00;50.30;;;;;;6365298;22;20049;-71
2020/12/27 08:01:33;;;;;;;13.68;8.10;;;25.10;50.20;;;;;;6366427;22;20400;-75
2020/12/27 08:04:02;;;;;;;9.85;5.03;;;25.20;50.00;;;;;;6364732;22;20025;-74
2020/12/27 08:06:30;;;;;;;12.95;5.10;;;25.20;49.90;;;;;;6365426;22;19998;-74
2020/12/27 08:09:15;;;;;;;9.20;3.63;;;25.30;49.50;;;;;;6364750;22;20759;-74
2020/12/27 08:11:43;;;;;;;9.00;4.40;;;25.30;49.50;;;;;;6365920;22;19998;-72
2020/12/27 08:14:14;;;;;;;13.68;4.90;;;25.40;49.60;;;;;;6366550;22;20010;-72
2020/12/27 08:16:42;;;;;;;8.85;4.22;;;25.40;49.50;;;;;;6364039;22;19994;-74
2020/12/27 08:19:13;;;;;;;10.88;4.20;;;25.40;49.50;;;;;;6365808;22;20085;-73
2020/12/27 08:21:42;;;;;;;11.30;4.50;;;25.40;50.10;;;;;;6364360;22;20002;-74
2020/12/27 08:24:14;;;;;;;8.50;3.30;;;25.50;49.50;;;;;;6366416;22;19999;-73
2020/12/27 08:26:45;;;;;;;9.88;3.92;;;25.50;49.40;;;;;;6365392;22;20081;-73
2020/12/27 08:29:20;;;;;;;7.45;2.70;;;25.60;49.20;;;;;;6365097;22;20118;-74
2020/12/27 08:32:04;;;;;;;9.70;2.83;;;25.60;49.00;;;;;;6365436;22;20002;-75
2020/12/27 08:34:32;;;;;;;8.98;3.00;;;25.60;48.70;;;;;;6365321;22;20052;-75
2020/12/27 08:37:00;;;;;;;8.35;2.47;;;25.60;48.50;;;;;;6365933;22;20459;-74
2020/12/27 08:39:45;;;;;;;8.43;3.13;;;25.60;48.40;;;;;;6365056;22;20025;-74
2020/12/27 08:42:36;;;;;;;7.70;2.13;;;25.60;48.30;;;;;;6363032;22;20493;-72
2020/12/27 08:45:48;;;;;;;12.30;2.25;;;25.70;48.20;;;;;;6365236;22;20037;-74
2020/12/27 08:48:54;;;;;;;8.35;2.22;;;25.70;48.10;;;;;;6364111;22;20002;-74
2020/12/27 08:52:00;;;;;;;7.40;3.35;;;25.70;47.90;;;;;;6362819;22;20007;-74
2020/12/27 08:54:46;;;;;;;;;;;25.70;47.80;;;;;;6364693;22;20002;-74
2020/12/27 08:57:52;;;;;;;13.05;2.63;;;25.80;47.70;;;;;;6364742;22;19967;-74
2020/12/27 09:00:39;;;;;;;;;;;25.80;47.80;;;;;;6364715;22;20529;-74
2020/12/27 09:03:45;;;;;;;6.30;2.05;;;25.80;47.60;;;;;;6365426;22;19898;-73
2020/12/27 09:06:51;;;;;;;6.82;2.10;;;25.90;47.70;;;;;;6365345;22;19995;-75
2020/12/27 09:09:57;;;;;;;9.40;2.53;;;25.90;47.60;;;;;;6364057;22;19998;-74
2020/12/27 09:12:43;;;;;;;;;;;25.90;47.50;;;;;;6365191;22;20003;-75
2020/12/27 09:16:05;;;;;;;6.05;2.13;;;25.90;47.50;;;;;;6365970;22;19930;-72
2020/12/27 09:19:11;;;;;;;9.43;2.55;;;25.90;47.40;;;;;;6364378;22;20014;-75
2020/12/27 09:21:57;;;;;;;;;;;25.90;47.40;;;;;;6364724;22;20561;-74
2020/12/27 09:25:03;;;;;;;9.25;2.50;;;25.90;47.10;;;;;;6365059;22;20274;-73
2020/12/27 09:27:49;;;;;;;;;;;26.00;46.10;;;;;;6365378;22;20006;-73
2020/12/27 09:30:58;;;;;;;478.60;426.35;;;26.10;45.20;;;;;;6364433;22;19930;-74
2020/12/27 09:34:04;;;;;;;13.43;6.32;;;26.00;45.20;;;;;;6365823;22;19998;-74
2020/12/27 09:36:50;;;;;;;;;;;25.90;45.10;;;;;;6338191;22;20136;-73
2020/12/27 09:39:56;;;;;;;22.80;18.65;;;25.80;45.70;;;;;;6362963;22;20229;-74
2020/12/27 09:43:08;;;;;;;12.93;8.02;;;25.80;46.20;;;;;;6364520;22;20002;-74
2020/12/27 09:46:14;;;;;;;11.00;5.00;;;25.90;46.50;;;;;;6365123;22;20434;-73
2020/12/27 09:49:00;;;;;;;;;;;25.90;46.50;;;;;;6361329;22;19994;-74
2020/12/27 09:52:12;;;;;;;11.73;3.40;;;25.90;46.40;;;;;;6364603;22;19914;-74
2020/12/27 09:55:18;;;;;;;7.50;2.55;;;26.10;46.60;;;;;;6365934;22;20009;-74
2020/12/27 09:58:24;;;;;;;8.55;2.40;;;26.10;46.40;;;;;;6367058;22;20081;-73
2020/12/27 10:01:10;;;;;;;;;;;26.20;46.40;;;;;;6366960;22;20010;-72
2020/12/27 10:04:16;;;;;;;10.18;2.67;;;26.20;46.40;;;;;;6367707;22;19902;-73
2020/12/27 10:07:22;;;;;;;5.72;2.33;;;26.30;46.40;;;;;;6367272;22;20006;-73
2020/12/27 10:10:08;;;;;;;;;;;26.30;46.40;;;;;;6365767;22;20059;-74
2020/12/27 10:13:14;;;;;;;6.15;2.25;;;26.40;46.40;;;;;;6338337;22;20325;-75
2020/12/27 10:16:01;;;;;;;;;;;26.50;46.40;;;;;;6365775;22;20002;-73
2020/12/27 10:19:07;;;;;;;4.05;2.08;;;26.40;46.20;;;;;;6363113;22;19909;-74
2020/12/27 10:21:52;;;;;;;;;;;26.40;46.20;;;;;;6365548;22;20443;-74
2020/12/27 10:24:59;;;;;;;10.25;2.58;;;26.50;45.80;;;;;;6365911;22;20256;-74
2020/12/27 10:28:05;;;;;;;9.88;2.72;;;26.50;45.80;;;;;;6364450;22;20048;-74
2020/12/27 10:31:11;;;;;;;5.93;2.00;;;26.50;45.30;;;;;;6364982;22;20037;-74
2020/12/27 10:34:17;;;;;;;11.35;3.72;;;26.50;45.20;;;;;;6365698;22;19998;-73
2020/12/27 10:37:23;;;;;;;6.75;2.08;;;26.50;45.20;;;;;;6364175;22;19998;-73
2020/12/27 10:40:29;;;;;;;7.05;2.10;;;26.50;44.90;;;;;;6364136;22;20015;-74
2020/12/27 10:43:35;;;;;;;4.95;2.00;;;26.60;44.90;;;;;;6366156;22;20021;-72
2020/12/27 10:46:41;;;;;;;7.00;1.90;;;26.70;44.60;;;;;;6365968;22;19995;-73
2020/12/27 10:49:47;;;;;;;3.50;1.92;;;26.70;44.70;;;;;;6364751;22;20077;-73
2020/12/27 10:52:53;;;;;;;12.70;6.25;;;26.70;44.50;;;;;;6365230;22;20012;-72
2020/12/27 10:55:59;;;;;;;12.80;7.78;;;26.70;44.50;;;;;;6365561;22;20438;-73
2020/12/27 10:59:05;;;;;;;13.23;6.07;;;26.80;44.50;;;;;;6363706;22;20045;-73
2020/12/27 11:02:12;;;;;;;15.65;5.82;;;26.80;44.40;;;;;;6363666;22;20010;-73
2020/12/27 11:05:18;;;;;;;14.00;9.90;;;26.80;44.40;;;;;;6365417;22;20002;-72
2020/12/27 11:08:24;;;;;;;17.15;11.48;;;26.90;44.20;;;;;;6365753;22;20006;-72
2020/12/27 11:11:31;;;;;;;20.70;18.45;;;27.00;44.20;;;;;;6363084;22;20019;-71
2020/12/27 11:14:37;;;;;;;32.05;27.60;;;27.00;44.20;;;;;;6364653;22;19998;-71
2020/12/27 11:17:44;;;;;;;31.92;25.65;;;27.00;44.70;;;;;;6365147;22;19995;-71
2020/12/27 11:20:50;;;;;;;15.55;12.02;;;27.00;44.00;;;;;;6365324;22;20089;-73
2020/12/27 11:23:57;;;;;;;13.20;11.30;;;27.00;44.00;;;;;;6364173;22;20430;-72
2020/12/27 11:27:04;;;;;;;8.77;7.18;;;27.00;44.00;;;;;;6364840;22;20002;-72
2020/12/27 11:30:11;;;;;;;14.65;11.23;;;27.00;44.00;;;;;;6365337;22;20002;-71
2020/12/27 11:33:17;;;;;;;18.40;11.25;;;27.00;44.10;;;;;;6363939;22;20073;-70
2020/12/27 11:36:23;;;;;;;11.98;7.28;;;27.10;44.30;;;;;;6363144;22;20006;-71
2020/12/27 11:39:29;;;;;;;7.85;5.90;;;27.00;44.50;;;;;;6365202;22;20010;-72
2020/12/27 11:42:36;;;;;;;9.63;7.00;;;27.00;44.70;;;;;;6365596;22;19999;-73
2020/12/27 11:45:42;;;;;;;13.43;8.80;;;27.00;44.70;;;;;;6363692;22;20002;-72
2020/12/27 11:48:49;;;;;;;14.60;8.20;;;27.00;44.90;;;;;;6365151;22;20001;-72
2020/12/27 11:51:55;;;;;;;14.93;6.72;;;27.20;44.90;;;;;;6364738;22;19994;-72
2020/12/27 11:55:01;;;;;;;11.43;9.98;;;27.20;44.40;;;;;;6363874;22;20002;-73
2020/12/27 11:58:07;;;;;;;13.30;5.20;;;27.30;44.30;;;;;;6363804;22;20002;-71
2020/12/27 12:01:13;;;;;;;12.15;6.75;;;27.30;43.90;;;;;;6365039;22;20059;-72
2020/12/27 12:04:19;;;;;;;21.20;13.05;;;27.40;43.80;;;;;;6364649;22;20006;-72
2020/12/27 12:07:25;;;;;;;15.15;6.18;;;27.40;43.90;;;;;;6363263;22;20002;-72
2020/12/27 12:10:31;;;;;;;20.98;15.57;;;27.30;43.90;;;;;;6364406;22;20037;-72
2020/12/27 12:13:37;;;;;;;27.10;16.77;;;27.40;44.10;;;;;;6364283;22;19998;-72
2020/12/27 12:16:44;;;;;;;15.75;11.05;;;27.30;44.20;;;;;;6363432;22;20383;-72
2020/12/27 12:19:50;;;;;;;15.25;9.27;;;27.30;44.40;;;;;;6363903;22;20010;-72
2020/12/27 12:22:56;;;;;;;32.00;22.35;;;27.30;44.70;;;;;;6364757;22;19999;-72
2020/12/27 12:26:03;;;;;;;35.38;22.50;;;27.30;44.90;;;;;;6364720;22;20004;-72
2020/12/27 12:29:09;;;;;;;60.35;47.78;;;27.20;45.00;;;;;;6362861;22;19995;-72
2020/12/27 12:32:15;;;;;;;48.15;38.33;;;27.20;45.30;;;;;;6363739;22;20002;-73
2020/12/27 12:35:21;;;;;;;25.92;19.27;;;27.10;45.30;;;;;;6364635;22;19999;-72
2020/12/27 12:38:27;;;;;;;15.02;10.75;;;27.20;45.50;;;;;;6363621;22;20002;-73
2020/12/27 12:41:33;;;;;;;10.45;5.90;;;27.10;45.40;;;;;;6363354;22;20045;-73
2020/12/27 12:44:39;;;;;;;15.48;4.80;;;27.20;45.60;;;;;;6364344;22;20426;-72
2020/12/27 12:47:45;;;;;;;8.73;3.33;;;27.10;45.50;;;;;;6336389;22;20364;-73
2020/12/27 12:50:51;;;;;;;9.98;2.92;;;27.10;45.60;;;;;;6363255;22;20080;-73
2020/12/27 12:53:57;;;;;;;7.85;2.58;;;27.10;45.60;;;;;;6363652;22;20036;-71
2020/12/27 12:57:03;;;;;;;6.63;2.38;;;27.20;45.50;;;;;;6364754;22;19998;-71
2020/12/27 13:00:09;;;;;;;5.32;2.60;;;27.20;45.40;;;;;;6363011;22;20014;-70
2020/12/27 13:03:15;;;;;;;3.85;2.38;;;27.20;45.10;;;;;;6362742;22;20029;-71
2020/12/27 13:06:21;;;;;;;7.75;3.78;;;27.30;45.00;;;;;;6363995;22;20477;-70
2020/12/27 13:09:30;;;;;;;3.72;2.45;;;27.40;44.70;;;;;;6363806;22;20593;-72
2020/12/27 13:12:36;;;;;;;3.15;2.05;;;27.50;44.50;;;;;;6363197;22;20006;-71
2020/12/27 13:15:42;;;;;;;6.13;2.80;;;27.60;44.10;;;;;;6362762;22;20002;-72
2020/12/27 13:18:48;;;;;;;9.20;2.50;;;27.80;43.90;;;;;;6363986;22;20006;-72
2020/12/27 13:21:54;;;;;;;7.18;2.15;;;27.90;43.70;;;;;;6363632;22;19998;-73
2020/12/27 13:25:00;;;;;;;6.07;3.75;;;28.00;43.60;;;;;;6362655;22;20002;-72
2020/12/27 13:28:06;;;;;;;11.23;2.00;;;28.10;43.20;;;;;;6363339;22;19999;-72
2020/12/27 13:31:12;;;;;;;4.70;1.60;;;28.20;42.70;;;;;;6364219;22;20010;-72
2020/12/27 13:34:18;;;;;;;5.03;1.90;;;28.30;42.40;;;;;;6363084;22;19994;-72
2020/12/27 13:37:25;;;;;;;3.80;1.50;;;28.40;42.50;;;;;;6362820;22;20074;-72
2020/12/27 13:40:31;;;;;;;3.38;1.70;;;28.50;42.20;;;;;;6363586;22;20014;-72
2020/12/27 13:43:38;;;;;;;3.10;1.65;;;28.50;41.80;;;;;;6363751;22;20132;-72
2020/12/27 13:46:45;;;;;;;6.00;1.02;;;28.60;41.90;;;;;;6362767;22;20021;-72
2020/12/27 13:49:51;;;;;;;2.58;1.35;;;28.60;42.20;;;;;;6363612;22;20081;-73
2020/12/27 13:52:57;;;;;;;2.55;1.50;;;28.60;42.20;;;;;;6364383;22;20426;-72
2020/12/27 13:56:03;;;;;;;4.38;1.60;;;28.60;42.20;;;;;;6362895;22;20050;-72
2020/12/27 13:59:09;;;;;;;9.32;1.40;;;28.50;42.60;;;;;;6362600;22;20010;-72
2020/12/27 14:02:15;;;;;;;4.63;1.95;;;28.30;42.80;;;;;;6363704;22;20102;-72
2020/12/27 14:05:22;;;;;;;5.13;1.50;;;28.20;43.10;;;;;;6363702;22;20625;-72
2020/12/27 14:08:28;;;;;;;8.75;3.15;;;28.20;43.40;;;;;;6362612;22;20061;-72
2020/12/27 14:11:34;;;;;;;3.00;1.13;;;28.10;43.40;;;;;;6363776;22;20476;-72
2020/12/27 14:14:40;;;;;;;6.13;1.75;;;28.10;43.60;;;;;;6363864;22;20001;-72
2020/12/27 14:17:46;;;;;;;26.23;2.20;;;28.00;43.50;;;;;;6362792;22;19998;-72
2020/12/27 14:20:52;;;;;;;2.78;1.38;;;28.00;43.60;;;;;;6362442;22;20014;-71
2020/12/27 14:23:58;;;;;;;4.47;1.58;;;28.00;43.70;;;;;;6364861;22;20069;-71
2020/12/27 14:27:04;;;;;;;2.42;1.77;;;27.90;43.90;;;;;;6364138;22;20005;-72
2020/12/27 14:30:10;;;;;;;3.38;1.52;;;27.90;44.10;;;;;;6362459;22;20063;-71
2020/12/27 14:33:16;;;;;;;5.63;1.70;;;27.80;44.20;;;;;;6363354;22;19999;-73
2020/12/27 14:36:25;;;;;;;4.03;1.10;;;27.80;44.30;;;;;;6365507;22;19998;-72
2020/12/27 14:39:32;;;;;;;6.38;1.23;;;27.70;44.30;;;;;;6364449;22;20117;-72
2020/12/27 14:42:38;;;;;;;2.65;1.60;;;27.70;44.20;;;;;;6364547;22;20448;-73
2020/12/27 14:45:44;;;;;;;4.05;1.58;;;27.70;44.30;;;;;;6366052;22;20073;-72
2020/12/27 14:48:50;;;;;;;6.38;3.08;;;27.70;44.20;;;;;;6366593;22;20368;-72
2020/12/27 14:51:56;;;;;;;4.32;3.50;;;27.80;44.20;;;;;;6363800;22;19994;-72
2020/12/27 14:55:03;;;;;;;3.88;2.90;;;27.80;44.10;;;;;;6364930;22;20326;-72
2020/12/27 14:58:09;;;;;;;4.30;2.65;;;27.80;43.90;;;;;;6365725;22;20375;-72
2020/12/27 15:01:15;;;;;;;6.72;1.70;;;27.90;43.90;;;;;;6365260;22;20025;-72
2020/12/27 15:04:22;;;;;;;4.00;1.42;;;27.90;44.00;;;;;;6362130;22;20452;-72
2020/12/27 15:07:28;;;;;;;5.47;1.45;;;27.90;44.00;;;;;;6365355;22;20005;-73
2020/12/27 15:10:34;;;;;;;4.80;1.58;;;27.90;43.70;;;;;;6365189;22;20070;-72
2020/12/27 15:13:40;;;;;;;2.67;0.82;;;27.90;43.50;;;;;;6364536;22;20005;-72
2020/12/27 15:16:47;;;;;;;3.45;0.90;;;28.00;43.60;;;;;;6363933;22;20022;-72
2020/12/27 15:19:53;;;;;;;1.90;0.80;;;28.00;43.20;;;;;;6365057;22;20018;-74
2020/12/27 15:22:59;;;;;;;3.00;1.00;;;28.00;43.10;;;;;;6365395;22;20037;-74
2020/12/27 15:26:05;;;;;;;2.58;1.13;;;28.00;43.00;;;;;;6357182;22;20006;-72